METAR Data

Data at: 0623 UTC 28 Sep 2022

METAR for:KIZG (Fryeburg/Eastern Slo, ME, US)
Text:KIZG 280554Z AUTO 00000KT 10SM CLR 09/08 A2988 RMK AO2 SLP120 T00890083 10139 20072 53007
Temperature: 8.9°C ( 48°F)
Dewpoint: 8.3°C ( 47°F) [RH = 96%]
Pressure (altimeter):29.88 inches Hg (1011.9 mb) [Sea level pressure: 1012.0 mb]
Winds:calm
Visibility:10 or more sm (16+ km)
Ceiling:at least 12,000 feet AGL
Clouds:sky clear below 12,000 feet AGL
QC Flag:automated observation with no human augmentation